logo
Search for airport 
image banner adimage banner adimage banner ad
image banner ad

OS67 - Mezzeh Airport

Located in Mezzeh, Syrian Arab Republic

ICAO - OS67, IATA -

Data provided by Airmate  

General information

Coordinates: N33°28'39" E36°13'24"
Elevation is 2385 feet MSL.
Magnetic variation is 5° East
View others Airports in Damascus Governorate

Operational data

Special qualification required
Current time UTC:
Current local time:
Weather at : OSDI - Damascus / International ( 28 km )
METAR: OSDI 012000Z 22014KT 9999 SCT026 TCU SCT030 BKN100 21/13 Q1015
TAF: TAF OSDI 0118/0224 27015G25KT 9999 SCT030 BKN100 TEMPO 0120/0210 22010KT 9999 FEW030
View NOTAMs / SUP AIP / TFR affecting this airport [VIEW]
Communications frequencies: [VIEW]

Runways:

Airport contact information

Address: Mezzeh Syrian Arab Republic

Satellite view of OS67